Bor Airport


Codes: HSBR/
Name: Bor Airport
City: Bor
Country: South Sudan
Elevation: 1394 ft.
Wikipedia:

Photos at Bor Airport


   Photos courtesy of SpottingLog. You can add your own sightings and photos by signing up for a free trial today.



No photos found.

Weather at Bor Airport


Time (UTC)DescriptionTempratureWindCloud coverageVisibilityPressureHumidity
16-Jun-2024 12:00Broken Clouds36°C2 mph, NE65%10000m1009hPa33%
16-Jun-2024 15:00Broken Clouds33°C2 mph, W71%10000m1007hPa38%
16-Jun-2024 18:00Broken Clouds25°C4 mph, W78%10000m1009hPa72%
16-Jun-2024 21:00Light Rain24°C2 mph, SW95%10000m1010hPa83%
17-Jun-2024 00:00Overcast Clouds23°C4 mph, SW93%10000m1010hPa86%
17-Jun-2024 03:00Light Rain22°C2 mph, SW100%10000m1012hPa89%
17-Jun-2024 06:00Light Rain26°C4 mph, SW100%10000m1014hPa71%
17-Jun-2024 09:00Overcast Clouds34°C2 mph, SW88%10000m1012hPa39%
17-Jun-2024 12:00Broken Clouds35°C4 mph, S73%10000m1008hPa32%
17-Jun-2024 15:00Overcast Clouds34°C4 mph, SE92%10000m1007hPa34%
17-Jun-2024 18:00Overcast Clouds28°C0 mph, N95%10000m1008hPa48%
17-Jun-2024 21:00Overcast Clouds26°C2 mph, NW94%10000m1009hPa56%
18-Jun-2024 00:00Overcast Clouds25°C2 mph, SW96%10000m1009hPa60%
18-Jun-2024 03:00Broken Clouds24°C2 mph, S75%10000m1011hPa64%
18-Jun-2024 06:00Light Rain27°C2 mph, SW71%10000m1013hPa61%
18-Jun-2024 09:00Overcast Clouds35°C2 mph, SW86%10000m1011hPa36%
18-Jun-2024 12:00Overcast Clouds35°C2 mph, NW89%10000m1008hPa31%
18-Jun-2024 15:00Light Rain30°C2 mph, NW95%10000m1008hPa49%
18-Jun-2024 18:00Overcast Clouds26°C4 mph, W92%10000m1009hPa60%
18-Jun-2024 21:00Scattered Clouds26°C2 mph, N46%10000m1009hPa62%
19-Jun-2024 00:00Scattered Clouds25°C0 mph, SE48%10000m1009hPa65%
19-Jun-2024 03:00Light Rain23°C2 mph, S92%10000m1010hPa70%
19-Jun-2024 06:00Light Rain29°C2 mph, SW94%10000m1012hPa54%
19-Jun-2024 09:00Broken Clouds36°C2 mph, SW65%10000m1010hPa34%
19-Jun-2024 12:00Broken Clouds37°C2 mph, NW80%10000m1007hPa28%
19-Jun-2024 15:00Light Rain27°C9 mph, W86%10000m1007hPa63%
19-Jun-2024 18:00Light Rain25°C4 mph, W87%10000m1008hPa66%
19-Jun-2024 21:00Few Clouds25°C4 mph, S18%10000m1010hPa64%
20-Jun-2024 00:00Light Rain24°C4 mph, NW23%10000m1010hPa71%
20-Jun-2024 03:00Few Clouds23°C2 mph, SW11%10000m1011hPa76%
20-Jun-2024 06:00Light Rain27°C4 mph, W18%10000m1013hPa61%
20-Jun-2024 09:00Few Clouds37°C0 mph, NW12%10000m1011hPa34%
20-Jun-2024 12:00Few Clouds38°C2 mph, SE19%10000m1008hPa27%
20-Jun-2024 15:00Light Rain33°C2 mph, SE82%10000m1007hPa39%
20-Jun-2024 18:00Light Rain28°C4 mph, NW68%10000m1009hPa53%
20-Jun-2024 21:00Clear Sky26°C4 mph, SW9%10000m1009hPa62%
21-Jun-2024 00:00Clear Sky25°C2 mph, W10%10000m1009hPa64%
21-Jun-2024 03:00Broken Clouds25°C2 mph, NW67%10000m1010hPa66%
21-Jun-2024 06:00Scattered Clouds30°C4 mph, SE37%10000m1012hPa47%
21-Jun-2024 09:00Broken Clouds36°C7 mph, SE81%10000m1011hPa30%